Hancock, New Hampshire
Current Conditions -  °F | °C
As of 8:52 PM on Wednesday 22 Oct 2014 (Local Time) from KAFN Reporting Station
Light Rain Light Rain  
Wind Chill: 42°   Ceiling: 500
Heat Index: 45°   Visibility: 4mi
Dew Point: 44°   Wind: 6mph
Humidity: 97%   Direction: NA
Pressure: 29.94"   Gusts: NA
Location:  42.97°N, 71.98°W
Report Text: KAFN 230052Z AUTO VRB05KT 4SM -RA BR OVC005 07/07 A2994 RMK AO2 CIG 003V009 SLP147 P0003 T00720067
Loading
Personal Weather Stations






























Interactive Weather Map
Tropical Storm Tracking
New forecast layout! Learn more

10-Day Weather Forecast

Advertisements
Track Severe Weather on mobile